Pacific Gannet — 9VFJ7 — position and weather

sailwx.info

Track history (hours):
 
Tides and Currents Weather Stations Pressure Air Temp Water Temp Dewpoint Dewpoint Depression Visibility Wind Speed Wind Dir Waves Ship Positions

Pacific Gannet

Last reported at 2018-Jan-28 01:36 UTC. Time now 2018-Jun-20 07:06 UTC.
Position N 04°53' W 001°45'.
Warning: this ship's position is months out of date.

Length 84 m; draft 5.9 m.

Type: Other ship. MMSI: 565093000.

Date/timePositionNaut miles runAvg speedWind from/ knotsBaromVisibWave heightAir tempDewpointWater temp
2018-Jan-28 01:36N 04°53' W 001°45'0 0.0
2018-Jan-28 01:24N 04°53' W 001°45'0 0.0
2018-Jan-27 22:54N 04°53' W 001°45'0 0.0
2018-Jan-27 22:27N 04°53' W 001°45'0 0.0
2018-Jan-27 20:30N 04°53' W 001°45'0 0.0
2018-Jan-27 20:00N 04°53' W 001°45'0 0.0
2018-Jan-27 19:24N 04°53' W 001°45'0 0.0
2018-Jan-27 18:48N 04°53' W 001°45'0 0.0
2018-Jan-27 18:30N 04°53' W 001°45'0 0.0
2018-Jan-27 18:00N 04°53' W 001°45'0 0.0
2018-Jan-27 17:30N 04°53' W 001°45'1 1.9
2018-Jan-27 16:45N 04°54' W 001°44'1 4.6
2018-Jan-27 16:28N 04°53' W 001°43'3 6.6
2018-Jan-27 16:00N 04°50' W 001°45'4 7.5
2018-Jan-27 15:30N 04°48' W 001°48'  
2018-Jan-21 18:50N 04°54' W 001°44'1 3.6
2018-Jan-21 18:29N 04°53' W 001°43'4 8.5
2018-Jan-21 18:00N 04°50' W 001°46'  
Track history (hours):
 
Tides and Currents Weather Stations Pressure Air Temp Water Temp Dewpoint Dewpoint Depression Visibility Wind Speed Wind Dir Waves Ship Positions

Pacific Gannet

Last reported at 2018-Jan-28 01:36 UTC. Time now 2018-Jun-20 07:06 UTC.
Position N 04°53' W 001°45'.
Warning: this ship's position is months out of date.

Length 84 m; draft 5.9 m.

Type: Other ship. MMSI: 565093000.

Date/timePositionNaut miles runAvg speedWind from/ knotsBaromVisibWave heightAir tempDewpointWater temp
2018-Jan-28 01:36N 04°53' W 001°45'0 0.0
2018-Jan-28 01:24N 04°53' W 001°45'0 0.0
2018-Jan-27 22:54N 04°53' W 001°45'0 0.0
2018-Jan-27 22:27N 04°53' W 001°45'0 0.0
2018-Jan-27 20:30N 04°53' W 001°45'0 0.0
2018-Jan-27 20:00N 04°53' W 001°45'0 0.0
2018-Jan-27 19:24N 04°53' W 001°45'0 0.0
2018-Jan-27 18:48N 04°53' W 001°45'0 0.0
2018-Jan-27 18:30N 04°53' W 001°45'0 0.0
2018-Jan-27 18:00N 04°53' W 001°45'0 0.0
2018-Jan-27 17:30N 04°53' W 001°45'1 1.9
2018-Jan-27 16:45N 04°54' W 001°44'1 4.6
2018-Jan-27 16:28N 04°53' W 001°43'3 6.6
2018-Jan-27 16:00N 04°50' W 001°45'4 7.5
2018-Jan-27 15:30N 04°48' W 001°48'  
2018-Jan-21 18:50N 04°54' W 001°44'1 3.6
2018-Jan-21 18:29N 04°53' W 001°43'4 8.5
2018-Jan-21 18:00N 04°50' W 001°46'  

Dump ship's entire track history